Time;durP1;ratioP1;P1;durP2;ratioP2;P2;SDS_P1;SDS_P2;PMS_P1;PMS_P2;Temp;Humidity;BMP_temperature;BMP_pressure;BME280_temperature;BME280_humidity;BME280_pressure;Samples;Min_cycle;Max_cycle;Signal;HPM_P1;HPM_P2
2022/07/06 00:02:01;;;;;;;6.40;1.35;;;15.00;99.90;;;;;;5058351;28;21563;-67
2022/07/06 00:04:27;;;;;;;7.18;1.55;;;14.90;99.90;;;;;;5066496;28;20071;-67
2022/07/06 00:06:53;;;;;;;4.68;1.40;;;14.80;99.90;;;;;;5060976;28;20044;-67
2022/07/06 00:09:21;;;;;;;6.50;1.55;;;14.80;99.90;;;;;;5059031;28;20517;-67
2022/07/06 00:11:52;;;;;;;5.72;1.67;;;14.80;99.90;;;;;;5057796;28;20037;-67
2022/07/06 00:14:18;;;;;;;6.20;1.52;;;14.80;99.90;;;;;;5061366;28;20046;-67
2022/07/06 00:16:47;;;;;;;5.10;1.33;;;14.80;99.90;;;;;;5074536;28;20052;-68
2022/07/06 00:19:12;;;;;;;6.43;1.48;;;14.80;99.90;;;;;;5057170;28;20053;-68
2022/07/06 00:21:41;;;;;;;9.52;1.88;;;14.80;99.90;;;;;;5068154;28;20506;-67
2022/07/06 00:24:10;;;;;;;9.10;1.60;;;14.70;99.90;;;;;;5052716;28;20041;-68
2022/07/06 00:26:36;;;;;;;7.53;1.52;;;14.80;99.90;;;;;;5067443;28;20542;-67
2022/07/06 00:29:01;;;;;;;6.47;1.40;;;14.70;99.90;;;;;;5059396;28;20265;-67
2022/07/06 00:31:27;;;;;;;6.85;1.83;;;14.80;99.90;;;;;;5063385;28;20041;-67
2022/07/06 00:33:53;;;;;;;9.07;1.58;;;14.70;99.90;;;;;;5067375;28;20051;-68
2022/07/06 00:36:21;;;;;;;8.25;1.55;;;14.70;99.90;;;;;;5067353;28;20398;-68
2022/07/06 00:38:47;;;;;;;3.88;1.30;;;14.70;99.90;;;;;;5072906;28;20055;-67
2022/07/06 00:41:13;;;;;;;4.57;1.20;;;14.60;99.90;;;;;;5063971;28;20041;-66
2022/07/06 00:43:52;;;;;;;4.78;1.50;;;14.60;99.90;;;;;;5067764;28;20059;-67
2022/07/06 00:46:18;;;;;;;4.38;1.48;;;14.70;99.90;;;;;;5066258;28;20411;-66
2022/07/06 00:48:44;;;;;;;3.88;1.33;;;14.70;99.90;;;;;;5067486;28;20049;-66
2022/07/06 00:51:11;;;;;;;4.25;1.35;;;14.60;99.90;;;;;;5051961;28;20048;-66
2022/07/06 00:53:41;;;;;;;8.90;1.73;;;14.60;99.90;;;;;;5058057;28;20125;-67
2022/07/06 00:56:06;;;;;;;7.20;1.40;;;14.50;99.90;;;;;;5055984;28;20076;-67
2022/07/06 00:58:32;;;;;;;9.40;1.50;;;14.60;99.90;;;;;;5064233;28;20122;-66
2022/07/06 01:00:59;;;;;;;6.13;1.95;;;14.70;99.90;;;;;;5070914;28;20051;-67
2022/07/06 01:03:25;;;;;;;4.03;1.40;;;14.60;99.90;;;;;;5060116;28;20581;-66
2022/07/06 01:05:51;;;;;;;7.50;1.45;;;14.60;99.90;;;;;;5066610;28;20044;-68
2022/07/06 01:08:17;;;;;;;6.18;1.50;;;14.60;99.90;;;;;;5065385;28;20041;-66
2022/07/06 01:10:43;;;;;;;5.90;1.70;;;14.60;99.90;;;;;;5066370;28;20037;-67
2022/07/06 01:13:08;;;;;;;7.95;1.92;;;14.60;99.90;;;;;;5073022;28;20044;-67
2022/07/06 01:15:34;;;;;;;8.82;1.58;;;14.60;99.90;;;;;;5068108;28;20538;-68
2022/07/06 01:18:00;;;;;;;5.10;1.40;;;14.60;99.90;;;;;;5062783;28;20064;-67
2022/07/06 01:20:26;;;;;;;5.18;1.27;;;14.60;99.90;;;;;;5051606;28;20036;-66
2022/07/06 01:22:54;;;;;;;13.43;2.20;;;14.60;99.90;;;;;;5067906;28;20055;-68
2022/07/06 01:25:20;;;;;;;5.65;1.23;;;14.60;99.90;;;;;;5062353;28;20706;-67
2022/07/06 01:27:50;;;;;;;6.45;2.05;;;14.70;99.90;;;;;;5066094;28;20033;-67
2022/07/06 01:30:22;;;;;;;6.00;1.63;;;14.60;99.90;;;;;;5070661;28;20099;-68
2022/07/06 01:32:47;;;;;;;5.40;1.60;;;14.60;99.90;;;;;;5071035;28;20048;-67
2022/07/06 01:35:15;;;;;;;5.57;1.70;;;14.60;99.90;;;;;;5042775;28;20041;-67
2022/07/06 01:37:41;;;;;;;9.90;1.75;;;14.60;99.90;;;;;;5064113;28;20061;-67
2022/07/06 01:40:10;;;;;;;11.07;1.58;;;14.60;99.90;;;;;;5064781;28;20041;-67
2022/07/06 01:42:39;;;;;;;4.63;1.60;;;14.60;99.90;;;;;;5065901;28;20076;-67
2022/07/06 01:45:09;;;;;;;6.85;1.40;;;14.50;99.90;;;;;;5065885;28;20042;-66
2022/07/06 01:47:35;;;;;;;11.57;1.85;;;14.50;99.90;;;;;;5064748;28;20063;-66
2022/07/06 01:50:07;;;;;;;5.55;1.50;;;14.50;99.90;;;;;;5063359;28;20090;-66
2022/07/06 01:52:32;;;;;;;5.70;1.60;;;14.50;99.90;;;;;;5065948;28;20120;-68
2022/07/06 01:54:58;;;;;;;4.82;1.48;;;14.50;99.90;;;;;;5065658;28;20135;-67
2022/07/06 01:57:24;;;;;;;4.57;1.40;;;14.50;99.90;;;;;;5072083;28;20436;-67
2022/07/06 01:59:50;;;;;;;4.13;1.30;;;14.50;99.90;;;;;;5068346;28;20090;-66
2022/07/06 02:02:17;;;;;;;5.35;1.45;;;14.50;99.90;;;;;;5068924;28;20404;-68
2022/07/06 02:04:43;;;;;;;6.82;1.40;;;14.50;99.90;;;;;;5058134;28;20114;-67
2022/07/06 02:07:08;;;;;;;7.35;1.90;;;14.50;99.90;;;;;;5060245;28;20044;-66
2022/07/06 02:09:37;;;;;;;4.03;1.70;;;14.50;99.90;;;;;;5050840;28;20402;-67
2022/07/06 02:12:03;;;;;;;6.88;1.45;;;14.50;99.90;;;;;;5057867;28;20033;-67
2022/07/06 02:14:28;;;;;;;3.53;1.35;;;14.50;99.90;;;;;;5068378;28;20044;-66
2022/07/06 02:16:54;;;;;;;2.85;1.10;;;14.50;99.90;;;;;;5061710;28;20239;-68
2022/07/06 02:19:20;;;;;;;4.05;1.10;;;14.50;99.90;;;;;;5067242;28;20064;-67
2022/07/06 02:21:45;;;;;;;10.32;1.70;;;14.40;99.90;;;;;;5062816;28;20491;-66
2022/07/06 02:24:11;;;;;;;5.22;1.40;;;14.50;99.90;;;;;;5044986;28;20376;-67
2022/07/06 02:26:37;;;;;;;8.57;1.70;;;14.40;99.90;;;;;;5048727;28;20123;-67
2022/07/06 02:29:09;;;;;;;4.88;1.25;;;14.30;99.90;;;;;;5063293;28;20044;-66
2022/07/06 02:31:35;;;;;;;6.90;1.83;;;14.30;99.90;;;;;;5041277;28;20040;-67
2022/07/06 02:34:00;;;;;;;6.28;1.52;;;14.30;99.90;;;;;;5060837;28;20040;-68
2022/07/06 02:36:26;;;;;;;8.68;1.80;;;14.20;99.90;;;;;;5067486;28;20498;-67
2022/07/06 02:38:52;;;;;;;8.10;1.75;;;14.10;99.90;;;;;;5065198;28;20080;-67
2022/07/06 02:41:17;;;;;;;5.43;1.20;;;14.20;99.90;;;;;;5059426;28;20536;-67
2022/07/06 02:43:43;;;;;;;4.70;1.38;;;14.10;99.90;;;;;;5069299;28;20029;-67
2022/07/06 02:46:09;;;;;;;7.78;1.50;;;14.00;99.90;;;;;;5036758;28;20049;-68
2022/07/06 02:48:35;;;;;;;3.17;1.35;;;14.00;99.90;;;;;;5062208;28;20075;-67
2022/07/06 02:51:00;;;;;;;8.15;1.30;;;13.90;99.90;;;;;;5066208;28;20041;-67
2022/07/06 02:53:26;;;;;;;11.52;1.58;;;13.90;99.90;;;;;;5070424;28;20035;-67
2022/07/06 02:55:52;;;;;;;6.72;1.75;;;13.90;99.90;;;;;;5064586;28;20056;-67
2022/07/06 02:58:17;;;;;;;7.63;1.75;;;13.90;99.90;;;;;;5063603;28;20383;-67
2022/07/06 03:00:46;;;;;;;4.40;1.42;;;13.80;99.90;;;;;;5064344;28;20040;-67
2022/07/06 03:03:11;;;;;;;6.82;1.58;;;13.80;99.90;;;;;;5059577;28;20055;-67
2022/07/06 03:05:37;;;;;;;8.95;1.60;;;13.70;99.90;;;;;;5062323;28;20053;-67
2022/07/06 03:08:03;;;;;;;8.82;1.90;;;13.80;99.90;;;;;;5068806;28;20040;-66
2022/07/06 03:10:28;;;;;;;3.38;1.23;;;13.70;99.90;;;;;;5059189;28;20044;-67
2022/07/06 03:12:54;;;;;;;3.15;1.27;;;13.70;99.90;;;;;;5057488;28;20043;-67
2022/07/06 03:15:23;;;;;;;4.30;1.42;;;13.60;99.90;;;;;;5054758;28;20049;-66
2022/07/06 03:17:48;;;;;;;8.77;1.67;;;13.60;99.90;;;;;;5065145;28;20058;-68
2022/07/06 03:20:14;;;;;;;8.13;1.65;;;13.50;99.90;;;;;;5068957;28;20079;-67
2022/07/06 03:22:41;;;;;;;7.53;1.60;;;13.50;99.90;;;;;;5060599;28;20065;-67
2022/07/06 03:25:07;;;;;;;9.07;1.75;;;13.50;99.90;;;;;;5055429;28;20080;-67
2022/07/06 03:27:35;;;;;;;7.55;1.73;;;13.50;99.90;;;;;;5067781;28;20590;-67
2022/07/06 03:30:01;;;;;;;4.65;1.85;;;13.50;99.90;;;;;;5057959;28;20053;-66
2022/07/06 03:32:29;;;;;;;5.53;1.60;;;13.50;99.90;;;;;;5069297;28;20059;-67
2022/07/06 03:34:54;;;;;;;7.47;1.80;;;13.50;99.90;;;;;;5058805;28;20048;-67
2022/07/06 03:37:20;;;;;;;6.78;1.95;;;13.50;99.90;;;;;;5062945;28;20032;-67
2022/07/06 03:39:45;;;;;;;7.65;2.08;;;13.50;99.90;;;;;;5068528;28;20494;-67
2022/07/06 03:42:11;;;;;;;7.03;2.35;;;13.50;99.90;;;;;;5071030;28;20044;-67
2022/07/06 03:44:37;;;;;;;5.32;1.80;;;13.50;99.90;;;;;;5058822;28;20044;-67
2022/07/06 03:47:03;;;;;;;4.90;2.25;;;13.40;99.90;;;;;;5065733;28;20052;-67
2022/07/06 03:49:29;;;;;;;6.95;2.13;;;13.40;99.90;;;;;;5070626;28;20327;-67
2022/07/06 03:51:57;;;;;;;4.90;2.00;;;13.40;99.90;;;;;;5067486;28;20093;-66
2022/07/06 03:54:23;;;;;;;3.85;1.60;;;13.30;99.90;;;;;;5069705;28;20040;-67
2022/07/06 03:56:50;;;;;;;6.60;1.70;;;13.30;99.90;;;;;;5058891;28;20075;-66
2022/07/06 03:59:15;;;;;;;7.70;2.00;;;13.30;99.90;;;;;;5066973;28;20101;-68
2022/07/06 04:01:41;;;;;;;5.28;1.63;;;13.30;99.90;;;;;;5063891;28;20389;-66
2022/07/06 04:04:06;;;;;;;5.93;1.40;;;13.30;99.90;;;;;;5066146;28;20577;-67
2022/07/06 04:06:34;;;;;;;6.43;1.63;;;13.30;99.90;;;;;;5060086;28;20227;-66
2022/07/06 04:09:00;;;;;;;15.70;1.92;;;13.20;99.90;;;;;;5055286;28;20052;-67
2022/07/06 04:11:26;;;;;;;6.32;2.08;;;13.30;99.90;;;;;;5058075;28;20802;-67
2022/07/06 04:13:51;;;;;;;6.05;1.30;;;13.30;99.90;;;;;;5047202;28;20048;-67
2022/07/06 04:16:17;;;;;;;10.15;1.85;;;13.30;99.90;;;;;;5066372;28;20123;-66
2022/07/06 04:18:43;;;;;;;7.68;1.85;;;13.30;99.90;;;;;;5068256;28;20109;-66
2022/07/06 04:21:08;;;;;;;7.57;1.52;;;13.50;99.90;;;;;;5062003;28;20122;-67
2022/07/06 04:23:34;;;;;;;8.63;1.90;;;13.40;99.90;;;;;;5058270;28;20059;-66
2022/07/06 04:26:00;;;;;;;4.88;1.35;;;13.50;99.90;;;;;;5064571;28;20063;-66
2022/07/06 04:28:26;;;;;;;4.78;1.30;;;13.50;99.90;;;;;;5054798;28;20087;-67
2022/07/06 04:30:51;;;;;;;5.63;1.58;;;13.60;99.90;;;;;;5066159;28;20045;-67
2022/07/06 04:33:17;;;;;;;6.50;1.60;;;13.70;99.90;;;;;;5063720;28;20086;-67
2022/07/06 04:35:43;;;;;;;8.55;1.77;;;13.80;99.90;;;;;;5063894;28;20078;-67
2022/07/06 04:38:08;;;;;;;10.02;2.22;;;13.70;99.90;;;;;;5060970;28;20041;-67
2022/07/06 04:40:37;;;;;;;7.55;1.60;;;13.70;99.90;;;;;;5062100;28;20041;-67
2022/07/06 04:43:06;;;;;;;8.38;1.67;;;13.70;99.90;;;;;;5062897;28;20123;-67
2022/07/06 04:45:32;;;;;;;6.13;1.40;;;13.80;99.90;;;;;;5056887;28;20123;-67
2022/07/06 04:48:00;;;;;;;9.50;1.40;;;13.70;99.90;;;;;;5065443;28;20143;-66
2022/07/06 04:50:26;;;;;;;5.82;1.30;;;13.70;99.90;;;;;;5044385;28;20071;-67
2022/07/06 04:52:52;;;;;;;6.43;1.30;;;13.70;99.90;;;;;;5063816;28;20082;-66
2022/07/06 04:55:17;;;;;;;2.83;0.95;;;13.70;99.90;;;;;;5066706;28;20563;-69
2022/07/06 04:57:43;;;;;;;3.35;0.93;;;13.70;99.90;;;;;;5059329;28;20052;-66
2022/07/06 05:00:09;;;;;;;6.07;1.13;;;13.60;99.90;;;;;;5053731;28;20406;-68
2022/07/06 05:02:35;;;;;;;4.03;1.05;;;13.70;99.90;;;;;;5056931;28;20037;-67
2022/07/06 05:05:01;;;;;;;3.42;1.10;;;13.60;99.90;;;;;;5065818;28;20052;-67
2022/07/06 05:07:29;;;;;;;2.95;1.20;;;13.60;99.90;;;;;;5061896;28;20048;-67
2022/07/06 05:09:55;;;;;;;2.13;0.82;;;13.70;99.90;;;;;;5063096;28;20367;-67
2022/07/06 05:12:20;;;;;;;1.13;0.63;;;13.80;99.90;;;;;;5056417;28;20087;-66
2022/07/06 05:14:48;;;;;;;1.42;0.80;;;13.80;99.90;;;;;;5060585;28;20564;-67
2022/07/06 05:17:13;;;;;;;2.70;0.93;;;13.80;99.90;;;;;;5055187;28;20040;-66
2022/07/06 05:19:39;;;;;;;4.75;1.00;;;14.00;99.90;;;;;;5067734;28;20119;-67
2022/07/06 05:22:04;;;;;;;2.30;0.77;;;14.10;99.90;;;;;;5068511;28;20244;-67
2022/07/06 05:24:30;;;;;;;3.30;0.88;;;14.10;99.90;;;;;;5069123;28;20052;-67
2022/07/06 05:26:56;;;;;;;2.90;0.95;;;14.20;99.90;;;;;;5062207;28;20045;-66
2022/07/06 05:29:21;;;;;;;4.25;1.13;;;14.30;99.90;;;;;;5054579;28;20063;-68
2022/07/06 05:31:47;;;;;;;6.88;1.00;;;14.40;99.90;;;;;;5064620;28;20063;-66
2022/07/06 05:34:13;;;;;;;6.53;1.60;;;14.50;99.90;;;;;;5062729;28;20083;-66
2022/07/06 05:36:39;;;;;;;2.85;0.98;;;14.50;99.90;;;;;;5064190;28;20040;-66
2022/07/06 05:39:04;;;;;;;6.45;1.40;;;14.60;99.90;;;;;;5072920;28;20044;-66
2022/07/06 05:41:30;;;;;;;6.40;1.33;;;14.80;99.90;;;;;;5069275;28;20041;-67
2022/07/06 05:43:56;;;;;;;7.18;1.92;;;14.70;99.90;;;;;;5067411;28;20045;-66
2022/07/06 05:46:21;;;;;;;5.40;1.52;;;14.70;99.90;;;;;;5062358;28;20041;-67
2022/07/06 05:51:31;;;;;;;9.07;1.52;;;14.80;99.90;;;;;;5066357;28;20131;-67
2022/07/06 05:53:57;;;;;;;10.30;1.90;;;14.80;99.90;;;;;;5059597;28;20054;-66
2022/07/06 05:56:23;;;;;;;8.68;1.50;;;14.80;99.90;;;;;;5065161;28;20406;-66
2022/07/06 05:58:48;;;;;;;5.63;1.48;;;14.90;99.90;;;;;;5071341;28;20041;-66
2022/07/06 06:01:14;;;;;;;6.80;1.50;;;15.00;99.90;;;;;;5061924;28;21847;-67
2022/07/06 06:03:40;;;;;;;10.98;1.33;;;15.00;99.90;;;;;;5063059;28;20045;-67
2022/07/06 06:06:06;;;;;;;9.23;1.70;;;15.10;99.90;;;;;;5067468;28;20119;-67
2022/07/06 06:08:32;;;;;;;5.75;1.55;;;15.30;99.90;;;;;;5069855;28;20562;-66
2022/07/06 06:11:00;;;;;;;4.82;1.13;;;15.50;99.90;;;;;;5058302;28;20033;-67
2022/07/06 06:13:26;;;;;;;6.57;1.35;;;15.60;99.90;;;;;;5060258;28;20040;-67
2022/07/06 06:15:52;;;;;;;6.30;1.70;;;15.70;99.90;;;;;;5058161;28;20053;-65
2022/07/06 06:18:18;;;;;;;7.93;1.67;;;15.80;99.90;;;;;;5070317;28;20129;-67
2022/07/06 06:20:45;;;;;;;3.28;1.30;;;15.80;99.90;;;;;;5058443;28;20479;-67
2022/07/06 06:23:10;;;;;;;4.28;1.13;;;15.80;99.90;;;;;;5059769;28;20052;-66
2022/07/06 06:25:38;;;;;;;8.27;1.50;;;15.80;99.90;;;;;;5062573;28;20144;-65
2022/07/06 06:28:05;;;;;;;8.70;2.00;;;15.70;99.90;;;;;;5071378;28;20049;-65
2022/07/06 06:30:32;;;;;;;6.10;1.73;;;15.70;99.90;;;;;;5061701;28;20029;-64
2022/07/06 06:33:13;;;;;;;9.43;1.20;;;15.70;99.90;;;;;;5062777;28;20486;-66
2022/07/06 06:35:54;;;;;;;4.47;1.13;;;15.70;99.90;;;;;;5063827;28;20040;-65
2022/07/06 06:38:22;;;;;;;7.13;1.48;;;15.70;99.90;;;;;;5055938;28;20045;-65
2022/07/06 06:40:50;;;;;;;7.05;1.20;;;15.70;99.90;;;;;;5062502;28;20047;-66
2022/07/06 06:43:16;;;;;;;8.85;1.48;;;15.70;99.90;;;;;;5072520;28;20506;-66
2022/07/06 06:45:42;;;;;;;5.43;1.20;;;15.90;99.90;;;;;;5070326;28;20036;-65
2022/07/06 06:48:08;;;;;;;4.53;1.20;;;16.10;99.90;;;;;;5067039;28;20371;-67
2022/07/06 06:50:33;;;;;;;5.82;1.45;;;16.40;99.90;;;;;;5062187;28;20041;-65
2022/07/06 06:52:59;;;;;;;6.97;1.67;;;16.60;99.90;;;;;;5066033;28;20418;-64
2022/07/06 06:55:25;;;;;;;5.82;1.30;;;16.70;99.90;;;;;;5066897;28;20132;-66
2022/07/06 06:57:51;;;;;;;8.50;1.65;;;17.00;99.90;;;;;;5065856;28;20041;-66
2022/07/06 07:00:17;;;;;;;4.88;1.30;;;17.10;99.90;;;;;;5058954;28;20336;-65
2022/07/06 07:02:44;;;;;;;4.88;0.98;;;17.30;99.90;;;;;;5051761;28;20098;-66
2022/07/06 07:05:09;;;;;;;7.47;1.27;;;17.40;99.90;;;;;;5065718;28;20040;-65
2022/07/06 07:07:36;;;;;;;5.10;1.30;;;17.60;99.90;;;;;;5068322;28;20060;-66
2022/07/06 07:10:03;;;;;;;9.30;1.50;;;17.60;99.90;;;;;;5050079;28;20132;-64
2022/07/06 07:12:29;;;;;;;4.13;1.10;;;17.60;99.90;;;;;;5067429;28;20047;-65
2022/07/06 07:14:55;;;;;;;6.13;1.67;;;17.70;99.90;;;;;;5055406;28;20053;-65
2022/07/06 07:17:20;;;;;;;6.45;1.30;;;17.60;99.90;;;;;;5065735;28;20487;-66
2022/07/06 07:19:46;;;;;;;6.32;1.35;;;17.50;99.90;;;;;;5056350;28;20048;-67
2022/07/06 07:22:12;;;;;;;6.13;1.35;;;17.20;99.90;;;;;;5066936;28;20120;-66
2022/07/06 07:24:37;;;;;;;5.32;1.42;;;17.10;99.90;;;;;;5046571;28;20509;-66
2022/07/06 07:27:05;;;;;;;9.00;1.50;;;16.90;99.90;;;;;;5066658;28;20143;-67
2022/07/06 07:29:33;;;;;;;4.95;1.30;;;16.90;99.90;;;;;;5062997;28;20044;-66
2022/07/06 07:31:59;;;;;;;6.90;1.35;;;16.70;99.90;;;;;;5047015;28;20406;-66
2022/07/06 07:34:24;;;;;;;12.25;1.63;;;16.70;99.90;;;;;;5068613;28;20045;-65
2022/07/06 07:36:53;;;;;;;7.82;1.55;;;16.60;99.90;;;;;;5062698;28;20135;-65
2022/07/06 07:39:19;;;;;;;7.65;1.98;;;16.60;99.90;;;;;;5065008;28;20087;-66
2022/07/06 07:41:44;;;;;;;5.85;1.20;;;16.60;99.90;;;;;;5063715;28;20091;-66
2022/07/06 07:44:10;;;;;;;5.38;1.02;;;16.90;99.90;;;;;;5061517;28;20150;-65
2022/07/06 07:46:39;;;;;;;9.27;1.48;;;17.30;99.90;;;;;;5065568;28;20044;-66
2022/07/06 07:49:05;;;;;;;6.53;1.30;;;17.60;99.90;;;;;;5065253;28;20040;-66
2022/07/06 07:51:33;;;;;;;8.57;1.40;;;17.90;99.90;;;;;;5063903;28;20036;-66
2022/07/06 07:53:59;;;;;;;8.18;1.17;;;17.90;99.90;;;;;;5061021;28;20056;-65
2022/07/06 07:56:25;;;;;;;8.23;1.25;;;18.00;99.90;;;;;;5044293;28;20037;-66
2022/07/06 07:58:51;;;;;;;3.33;0.65;;;18.20;99.90;;;;;;5061502;28;20043;-65
2022/07/06 08:01:16;;;;;;;9.07;1.73;;;18.40;99.60;;;;;;5060161;28;20093;-66
2022/07/06 08:03:42;;;;;;;6.22;1.10;;;18.30;99.50;;;;;;5066247;28;20515;-65
2022/07/06 08:06:10;;;;;;;4.50;1.00;;;18.50;99.00;;;;;;5058148;28;20049;-66
2022/07/06 08:08:36;;;;;;;3.35;0.93;;;18.40;99.80;;;;;;5065809;28;20040;-66
2022/07/06 08:11:01;;;;;;;3.70;1.63;;;18.40;98.30;;;;;;5067160;28;20494;-64
2022/07/06 08:13:27;;;;;;;4.53;1.20;;;18.30;99.10;;;;;;5060913;28;20053;-66
2022/07/06 08:15:53;;;;;;;7.38;1.13;;;18.20;97.80;;;;;;5060965;28;20521;-66
2022/07/06 08:18:18;;;;;;;3.17;0.90;;;18.20;97.20;;;;;;5065283;28;20136;-66
2022/07/06 08:20:44;;;;;;;4.22;0.98;;;18.10;97.60;;;;;;5064147;28;20055;-66
2022/07/06 08:23:10;;;;;;;5.13;1.08;;;18.10;97.50;;;;;;5062945;28;20406;-65
2022/07/06 08:25:35;;;;;;;5.43;0.95;;;18.10;96.60;;;;;;5067429;28;20167;-66
2022/07/06 08:28:01;;;;;;;2.67;0.77;;;18.10;97.70;;;;;;5067016;28;20047;-66
2022/07/06 08:30:27;;;;;;;4.28;1.15;;;18.20;97.50;;;;;;5067141;28;20055;-66
2022/07/06 08:32:52;;;;;;;3.15;1.00;;;18.20;97.90;;;;;;5067948;28;20048;-67
2022/07/06 08:35:18;;;;;;;10.32;1.17;;;18.30;98.00;;;;;;5066810;28;20041;-66
2022/07/06 08:37:45;;;;;;;4.15;1.08;;;18.30;98.20;;;;;;5066699;28;20091;-65
2022/07/06 08:40:11;;;;;;;9.40;1.05;;;18.30;98.50;;;;;;5062476;28;20182;-66
2022/07/06 08:42:36;;;;;;;5.57;1.02;;;18.50;96.20;;;;;;5065723;28;20460;-65
2022/07/06 08:45:06;;;;;;;3.92;0.98;;;18.40;97.00;;;;;;5049285;28;20044;-66
2022/07/06 08:47:34;;;;;;;5.80;1.10;;;18.50;95.80;;;;;;5060705;28;20542;-66
2022/07/06 08:50:02;;;;;;;4.03;0.90;;;18.60;95.90;;;;;;5068188;28;20041;-66
2022/07/06 08:52:28;;;;;;;5.25;1.13;;;18.40;96.40;;;;;;5063030;28;20043;-67
2022/07/06 08:54:55;;;;;;;10.13;1.55;;;18.40;96.90;;;;;;5070314;28;20060;-65
2022/07/06 08:57:21;;;;;;;3.20;0.93;;;18.50;97.20;;;;;;5068267;28;20051;-65
2022/07/06 08:59:46;;;;;;;2.63;1.27;;;18.60;97.50;;;;;;5071455;28;20056;-65
2022/07/06 09:02:13;;;;;;;2.95;0.82;;;18.60;97.60;;;;;;5052030;28;20458;-66
2022/07/06 09:04:41;;;;;;;6.95;1.20;;;18.70;97.50;;;;;;5063061;28;20057;-67
2022/07/06 09:07:07;;;;;;;;;;;18.80;97.40;;;;;;5071911;28;20044;-67
2022/07/06 09:09:33;;;;;;;4.10;1.05;;;18.70;97.50;;;;;;5071473;28;19920;-66
2022/07/06 09:12:00;;;;;;;7.53;1.13;;;18.60;97.50;;;;;;5068976;28;20055;-66
2022/07/06 09:14:27;;;;;;;7.97;1.13;;;18.40;97.90;;;;;;5067237;28;20048;-66
2022/07/06 09:17:05;;;;;;;3.85;0.98;;;18.30;98.80;;;;;;5067325;28;20402;-66
2022/07/06 09:19:31;;;;;;;3.50;1.25;;;18.20;99.50;;;;;;5071683;28;20444;-67
2022/07/06 09:22:00;;;;;;;6.38;1.83;;;18.10;99.90;;;;;;5069179;28;20053;-65
2022/07/06 09:24:26;;;;;;;8.10;1.23;;;18.10;99.90;;;;;;5070285;28;20102;-65
2022/07/06 09:26:57;;;;;;;5.75;1.15;;;18.20;99.90;;;;;;5052605;28;20044;-66
2022/07/06 09:29:31;;;;;;;9.00;1.52;;;18.30;99.90;;;;;;5070278;28;20517;-66
2022/07/06 09:32:00;;;;;;;6.88;1.13;;;18.40;99.90;;;;;;5069635;28;20048;-65
2022/07/06 09:34:43;;;;;;;5.38;1.40;;;18.80;99.60;;;;;;5069077;28;20045;-66
2022/07/06 09:37:09;;;;;;;4.05;1.13;;;19.00;99.80;;;;;;5070277;28;20044;-66
2022/07/06 09:39:35;;;;;;;5.82;1.08;;;19.30;99.90;;;;;;5068132;28;20376;-66
2022/07/06 09:42:03;;;;;;;9.85;1.27;;;19.50;99.80;;;;;;5068289;28;20121;-66
2022/07/06 09:44:34;;;;;;;7.65;1.42;;;19.50;98.80;;;;;;5068587;28;20480;-66
2022/07/06 09:47:04;;;;;;;5.85;1.77;;;19.40;98.90;;;;;;5063448;28;20080;-66
2022/07/06 09:49:30;;;;;;;6.47;1.40;;;19.40;99.60;;;;;;5066338;28;20494;-66
2022/07/06 09:52:07;;;;;;;2.97;1.35;;;19.70;99.90;;;;;;5068249;28;20040;-67
2022/07/06 09:54:38;;;;;;;4.22;0.95;;;20.00;99.50;;;;;;5066617;28;20059;-64
2022/07/06 09:57:05;;;;;;;4.82;1.25;;;20.20;97.90;;;;;;5066184;28;20302;-66
2022/07/06 09:59:32;;;;;;;5.72;1.20;;;20.20;96.30;;;;;;5062691;28;20082;-66
2022/07/06 10:02:00;;;;;;;2.17;0.82;;;19.90;97.10;;;;;;5060886;28;20135;-67
2022/07/06 10:04:35;;;;;;;2.42;1.02;;;19.70;97.20;;;;;;5064574;28;20059;-65
2022/07/06 10:07:20;;;;;;;5.72;1.05;;;19.60;96.90;;;;;;5065076;28;20499;-65
2022/07/06 10:09:47;;;;;;;3.92;1.23;;;19.50;97.20;;;;;;5061340;28;20048;-66
2022/07/06 10:12:15;;;;;;;4.85;1.40;;;19.50;97.80;;;;;;5070068;28;20490;-65
2022/07/06 10:14:42;;;;;;;1.33;0.65;;;19.70;97.80;;;;;;5062163;28;20074;-66
2022/07/06 10:17:08;;;;;;;7.85;1.38;;;19.80;97.80;;;;;;5071102;28;20056;-65
2022/07/06 10:19:34;;;;;;;7.88;1.50;;;20.10;97.90;;;;;;5064905;28;20490;-67
2022/07/06 10:22:03;;;;;;;5.63;0.98;;;20.40;98.20;;;;;;5064290;28;20045;-66
2022/07/06 10:24:30;;;;;;;9.73;1.13;;;20.50;98.10;;;;;;5060032;28;20123;-66
2022/07/06 10:26:56;;;;;;;5.35;1.00;;;20.80;97.80;;;;;;5052910;28;20048;-68
2022/07/06 10:29:24;;;;;;;6.13;1.20;;;21.00;97.60;;;;;;5046990;28;20041;-66
2022/07/06 10:31:51;;;;;;;4.47;1.10;;;21.10;96.60;;;;;;5072882;28;20037;-65
2022/07/06 10:34:19;;;;;;;3.28;1.20;;;21.30;96.70;;;;;;5069408;28;20500;-68
2022/07/06 10:36:50;;;;;;;3.70;1.10;;;21.40;96.30;;;;;;5070358;28;20497;-66
2022/07/06 10:42:45;;;;;;;3.15;1.15;;;21.70;95.60;;;;;;5067637;28;20512;-65
2022/07/06 10:45:14;;;;;;;2.05;1.00;;;21.80;93.80;;;;;;5060477;28;20051;-65
2022/07/06 10:47:42;;;;;;;4.80;1.23;;;21.70;93.40;;;;;;5068479;28;20044;-65
2022/07/06 10:50:08;;;;;;;5.63;1.30;;;21.90;94.20;;;;;;5067540;28;20113;-66
2022/07/06 10:53:02;;;;;;;7.20;1.20;;;22.20;94.40;;;;;;5072504;28;20521;-64
2022/07/06 10:55:33;;;;;;;2.55;0.88;;;22.60;92.70;;;;;;5054885;28;20083;-65
2022/07/06 10:58:00;;;;;;;4.57;1.00;;;22.60;90.20;;;;;;5056006;28;20453;-65
2022/07/06 11:00:26;;;;;;;3.80;1.08;;;22.30;91.10;;;;;;5067955;28;20494;-66
2022/07/06 11:02:51;;;;;;;5.72;1.30;;;21.90;92.50;;;;;;5066048;28;20033;-66
2022/07/06 11:05:40;;;;;;;6.53;1.30;;;21.60;91.10;;;;;;5070910;28;20044;-66
2022/07/06 11:08:08;;;;;;;;;;;21.60;91.60;;;;;;5057136;28;20037;-66
2022/07/06 11:10:54;;;;;;;6.20;1.10;;;21.80;91.80;;;;;;5065188;28;20001;-66
2022/07/06 11:13:27;;;;;;;8.65;1.50;;;22.20;91.30;;;;;;5061589;28;20052;-65
2022/07/06 11:16:03;;;;;;;6.50;1.30;;;22.30;90.60;;;;;;5055812;28;20148;-67
2022/07/06 11:18:39;;;;;;;3.40;1.00;;;22.20;90.00;;;;;;5039881;28;20048;-66
2022/07/06 11:21:31;;;;;;;3.22;1.25;;;22.40;90.90;;;;;;5070769;28;20083;-66
2022/07/06 11:23:58;;;;;;;4.15;0.90;;;22.70;88.30;;;;;;5056241;28;20073;-64
2022/07/06 11:26:24;;;;;;;4.85;1.35;;;22.40;90.10;;;;;;5065431;28;20775;-65
2022/07/06 11:28:51;;;;;;;4.75;1.10;;;22.20;90.30;;;;;;5067966;28;20043;-67
2022/07/06 11:31:17;;;;;;;;;;;21.90;90.40;;;;;;5056518;28;20091;-65
2022/07/06 11:33:47;;;;;;;8.95;1.23;;;22.10;90.30;;;;;;5063888;28;20275;-65
2022/07/06 11:36:18;;;;;;;3.95;1.00;;;22.30;90.90;;;;;;5054578;28;20041;-66
2022/07/06 11:38:46;;;;;;;2.95;1.20;;;22.40;89.40;;;;;;5065820;28;20079;-65
2022/07/06 11:41:13;;;;;;;2.85;1.08;;;22.40;90.20;;;;;;5067216;28;20449;-65
2022/07/06 11:43:42;;;;;;;4.43;1.10;;;22.40;90.20;;;;;;5066086;28;20102;-65
2022/07/06 11:46:26;;;;;;;3.22;1.65;;;22.60;89.40;;;;;;5065260;28;20062;-67
2022/07/06 11:49:04;;;;;;;4.93;1.00;;;22.90;89.00;;;;;;5060444;28;20127;-66
2022/07/06 11:51:32;;;;;;;4.90;1.15;;;23.20;86.30;;;;;;5072221;28;20376;-65
2022/07/06 11:54:00;;;;;;;7.03;1.20;;;23.30;88.80;;;;;;5063271;28;20086;-66
2022/07/06 11:56:29;;;;;;;3.50;1.13;;;23.60;88.00;;;;;;5064526;28;20063;-66
2022/07/06 11:58:56;;;;;;;4.82;1.50;;;23.80;86.10;;;;;;5055229;28;20056;-66
2022/07/06 12:01:24;;;;;;;1.92;0.95;;;23.70;81.20;;;;;;5065727;28;20040;-65
2022/07/06 12:03:50;;;;;;;5.65;1.17;;;23.60;83.80;;;;;;5060175;28;20041;-67
2022/07/06 12:06:22;;;;;;;2.80;1.10;;;23.70;83.80;;;;;;5052039;28;20044;-65
2022/07/06 12:08:53;;;;;;;6.07;1.05;;;23.60;83.40;;;;;;5051032;28;20040;-65
2022/07/06 12:11:21;;;;;;;3.47;1.00;;;23.50;81.90;;;;;;5065577;28;20068;-66
2022/07/06 12:13:48;;;;;;;4.28;1.20;;;23.10;81.20;;;;;;5055963;28;20052;-66
2022/07/06 12:16:17;;;;;;;2.08;1.10;;;22.70;83.40;;;;;;5064088;28;20494;-66
2022/07/06 12:18:47;;;;;;;3.50;0.90;;;22.50;85.10;;;;;;5068831;28;20072;-67
2022/07/06 12:21:16;;;;;;;3.10;1.05;;;22.40;85.40;;;;;;5062245;28;20051;-66
2022/07/06 12:23:47;;;;;;;5.60;1.13;;;22.30;84.20;;;;;;5055316;28;20048;-66
2022/07/06 12:26:18;;;;;;;3.63;1.17;;;22.30;85.60;;;;;;5048186;28;20049;-66
2022/07/06 12:28:44;;;;;;;3.38;1.25;;;22.30;84.70;;;;;;5062560;28;20498;-67
2022/07/06 12:31:10;;;;;;;4.03;0.95;;;22.20;84.60;;;;;;5062261;28;20064;-66
2022/07/06 12:33:36;;;;;;;3.55;1.20;;;22.00;85.20;;;;;;5069540;28;20102;-66
2022/07/06 12:36:15;;;;;;;2.75;1.27;;;21.90;84.70;;;;;;5070916;28;20040;-66
2022/07/06 12:38:46;;;;;;;4.82;1.10;;;21.80;87.90;;;;;;5071643;28;20048;-66
2022/07/06 12:41:34;;;;;;;2.47;1.02;;;22.10;88.90;;;;;;5064038;28;20037;-66
2022/07/06 12:44:06;;;;;;;4.00;1.35;;;22.50;87.80;;;;;;5070215;28;20040;-66
2022/07/06 12:46:37;;;;;;;3.97;1.20;;;22.70;86.80;;;;;;5061870;28;20033;-67
2022/07/06 12:49:14;;;;;;;2.38;1.00;;;22.80;86.20;;;;;;5058913;28;20106;-67
2022/07/06 12:52:00;;;;;;;4.10;1.13;;;22.70;85.80;;;;;;5057200;28;20067;-65
2022/07/06 12:54:32;;;;;;;6.55;1.45;;;22.50;85.30;;;;;;5067635;28;20044;-67
2022/07/06 12:56:57;;;;;;;5.15;1.02;;;22.30;85.00;;;;;;5067728;28;20052;-67